createdAt,value
2023-03-19T00:02:33.145Z,11.20
2023-03-19T00:07:34.815Z,11.20
2023-03-19T00:12:38.226Z,11.30
2023-03-19T00:17:40.232Z,11.30
2023-03-19T00:22:42.105Z,11.40
2023-03-19T00:27:44.508Z,11.20
2023-03-19T00:32:46.193Z,11.30
2023-03-19T00:37:47.819Z,11.30
2023-03-19T00:42:49.356Z,11.30
2023-03-19T00:47:50.912Z,11.40
2023-03-19T00:52:52.500Z,11.30
2023-03-19T00:57:54.150Z,11.40
2023-03-19T01:02:55.704Z,11.10
2023-03-19T01:07:57.276Z,11.10
2023-03-19T01:12:58.819Z,11.10
2023-03-19T01:18:01.015Z,11.10
2023-03-19T01:23:02.635Z,11.10
2023-03-19T01:28:04.393Z,11.10
2023-03-19T01:33:06.523Z,11.00
2023-03-19T01:38:08.249Z,11.10
2023-03-19T01:43:14.612Z,11.00
2023-03-19T01:48:24.112Z,11.00
2023-03-19T01:53:27.814Z,11.00
2023-03-19T01:58:29.702Z,10.90
2023-03-19T02:03:31.676Z,11.10
2023-03-19T02:08:33.448Z,10.90
2023-03-19T02:13:35.456Z,10.70
2023-03-19T02:18:37.093Z,10.60
2023-03-19T02:23:54.326Z,10.70
2023-03-19T02:28:56.413Z,10.70
2023-03-19T02:34:02.468Z,10.70
2023-03-19T02:39:11.237Z,10.60
2023-03-19T02:44:12.913Z,10.60
2023-03-19T02:49:15.201Z,10.60
2023-03-19T02:54:16.850Z,10.70
2023-03-19T02:59:18.485Z,10.60
2023-03-19T03:04:20.061Z,10.50
2023-03-19T03:09:22.536Z,10.60
2023-03-19T03:14:24.709Z,10.60
2023-03-19T03:19:26.349Z,10.60
2023-03-19T03:24:27.975Z,10.60
2023-03-19T03:29:29.507Z,10.60
2023-03-19T03:34:31.097Z,10.60
2023-03-19T03:39:32.699Z,10.70
2023-03-19T03:44:34.350Z,10.70
2023-03-19T03:49:36.132Z,10.70
2023-03-19T03:54:37.690Z,10.90
2023-03-19T03:59:39.284Z,10.90
2023-03-19T04:04:41.454Z,10.90
2023-03-19T04:09:43.083Z,10.80
2023-03-19T04:14:44.715Z,10.70
2023-03-19T04:19:46.392Z,10.70
2023-03-19T04:24:47.972Z,10.70
2023-03-19T04:29:49.534Z,10.60
2023-03-19T04:34:51.438Z,10.50
2023-03-19T04:39:54.452Z,10.60
2023-03-19T04:44:55.976Z,10.50
2023-03-19T04:49:58.037Z,10.50
2023-03-19T04:54:59.612Z,10.40
2023-03-19T05:00:01.174Z,10.40
2023-03-19T05:05:02.762Z,10.30
2023-03-19T05:10:04.677Z,10.40
2023-03-19T05:15:06.534Z,10.40
2023-03-19T05:20:09.490Z,10.30
2023-03-19T05:25:11.047Z,10.30
2023-03-19T05:30:12.936Z,10.20
2023-03-19T05:35:14.574Z,10.10
2023-03-19T05:40:16.785Z,10.20
2023-03-19T05:45:18.496Z,10.20
2023-03-19T05:50:20.074Z,10.20
2023-03-19T05:55:21.686Z,10.20
2023-03-19T06:00:23.322Z,10.30
2023-03-19T06:05:24.973Z,10.40
2023-03-19T06:10:27.221Z,10.40
2023-03-19T06:15:28.798Z,10.50
2023-03-19T06:20:30.521Z,10.50
2023-03-19T06:25:32.098Z,10.50
2023-03-19T06:30:34.377Z,10.50
2023-03-19T06:35:36.516Z,10.50
2023-03-19T06:40:38.168Z,10.60
2023-03-19T06:45:39.724Z,10.70
2023-03-19T06:50:41.448Z,10.90
2023-03-19T06:55:45.370Z,10.80
2023-03-19T07:00:47.124Z,10.90
2023-03-19T07:05:50.453Z,11.00
2023-03-19T07:10:51.988Z,11.00
2023-03-19T07:15:53.631Z,11.20
2023-03-19T07:20:55.345Z,11.20
2023-03-19T07:25:57.037Z,11.30
2023-03-19T07:30:58.639Z,11.60
2023-03-19T07:36:00.721Z,11.70
2023-03-19T07:41:03.117Z,11.70
2023-03-19T07:46:05.045Z,11.60
2023-03-19T07:51:07.236Z,11.60
2023-03-19T07:56:08.822Z,11.60
2023-03-19T08:01:10.722Z,11.50
2023-03-19T08:06:12.295Z,11.60
2023-03-19T08:11:14.026Z,11.60
2023-03-19T08:16:15.662Z,11.70
2023-03-19T08:21:17.542Z,11.70
2023-03-19T08:26:19.150Z,11.60
2023-03-19T08:31:20.825Z,11.80
2023-03-19T08:36:22.393Z,11.80
2023-03-19T08:41:24.172Z,11.80
2023-03-19T08:46:27.555Z,11.80
2023-03-19T08:51:31.090Z,11.60
2023-03-19T08:56:32.658Z,11.60
2023-03-19T09:01:34.270Z,11.50
2023-03-19T09:06:35.918Z,11.40
2023-03-19T09:11:37.607Z,11.50
2023-03-19T09:16:40.225Z,11.30
2023-03-19T09:21:42.351Z,11.40
2023-03-19T09:26:43.928Z,11.50
2023-03-19T09:31:45.580Z,11.50
2023-03-19T09:36:47.181Z,11.70
2023-03-19T09:42:00.186Z,11.70
2023-03-19T09:47:25.953Z,11.70
2023-03-19T09:52:41.305Z,11.80
2023-03-19T09:57:42.854Z,11.70
2023-03-19T10:02:44.501Z,11.80
2023-03-19T10:07:53.648Z,11.80
2023-03-19T10:12:55.226Z,11.90
2023-03-19T10:17:57.090Z,12.10
2023-03-19T10:23:21.870Z,12.40
2023-03-19T10:28:23.751Z,12.50
2023-03-19T10:33:32.233Z,12.80
2023-03-19T10:38:39.282Z,13.00
2023-03-19T10:43:41.048Z,13.00
2023-03-19T10:48:43.961Z,13.30
2023-03-19T10:53:45.685Z,13.20
2023-03-19T10:59:13.598Z,13.30
2023-03-19T11:04:19.540Z,13.40
2023-03-19T11:09:27.155Z,13.40
2023-03-19T11:14:28.730Z,13.40
2023-03-19T11:19:31.784Z,13.40
2023-03-19T11:24:36.182Z,13.60
2023-03-19T11:29:40.640Z,13.60
2023-03-19T11:34:48.949Z,13.70
2023-03-19T11:40:10.265Z,13.80
2023-03-19T11:45:21.442Z,13.90
2023-03-19T11:50:26.421Z,13.80
2023-03-19T11:55:27.967Z,13.60
2023-03-19T12:00:48.383Z,13.50
2023-03-19T12:05:56.487Z,13.50
2023-03-19T12:11:16.171Z,13.50
2023-03-19T12:16:45.826Z,13.30
2023-03-19T12:22:12.230Z,13.30
2023-03-19T12:27:33.721Z,13.20
2023-03-19T12:32:54.238Z,13.30
2023-03-19T12:38:10.794Z,13.60
2023-03-19T12:43:26.727Z,13.60
2023-03-19T12:48:29.830Z,13.60
2023-03-19T12:53:45.533Z,13.50
2023-03-19T12:58:47.310Z,13.30
2023-03-19T13:04:07.464Z,13.20
2023-03-19T13:09:16.290Z,13.30
2023-03-19T13:14:22.041Z,13.20
2023-03-19T13:19:42.183Z,13.30
2023-03-19T13:24:45.408Z,13.60
2023-03-19T13:29:56.340Z,13.80
2023-03-19T13:35:16.737Z,13.90
2023-03-19T13:40:37.112Z,14.00
2023-03-19T13:45:38.997Z,14.00
2023-03-19T13:50:54.280Z,14.00
2023-03-19T13:55:59.552Z,14.10
2023-03-19T14:01:01.270Z,14.40
2023-03-19T14:06:03.141Z,15.00
2023-03-19T14:11:05.776Z,15.20
2023-03-19T14:16:13.128Z,15.30
2023-03-19T14:21:18.271Z,15.20
2023-03-19T14:26:23.193Z,15.40
2023-03-19T14:31:28.430Z,15.20
2023-03-19T14:36:30.663Z,15.20
2023-03-19T14:41:33.755Z,15.10
2023-03-19T14:47:03.137Z,14.90
2023-03-19T14:52:09.829Z,14.70
2023-03-19T14:57:18.682Z,14.70
2023-03-19T15:02:39.084Z,14.70
2023-03-19T15:07:43.327Z,14.80
2023-03-19T15:13:03.751Z,14.90
2023-03-19T15:18:08.767Z,14.90
2023-03-19T15:23:25.922Z,14.80
2023-03-19T15:28:30.184Z,14.60
2023-03-19T15:33:40.080Z,14.60
2023-03-19T15:38:51.091Z,14.70
2023-03-19T15:43:53.011Z,14.50
2023-03-19T15:49:02.578Z,14.60
2023-03-19T15:54:04.590Z,14.50
2023-03-19T15:59:06.236Z,14.60
2023-03-19T16:04:11.519Z,14.70
2023-03-19T16:09:17.089Z,14.60
2023-03-19T16:14:26.592Z,14.60
2023-03-19T16:19:29.579Z,14.60
2023-03-19T16:24:34.045Z,14.40
2023-03-19T16:29:41.667Z,14.30
2023-03-19T16:34:46.777Z,14.30
2023-03-19T16:39:55.597Z,14.00
2023-03-19T16:44:57.288Z,13.90
2023-03-19T16:49:59.004Z,13.80
2023-03-19T16:55:00.731Z,13.70
2023-03-19T17:00:02.409Z,13.50
2023-03-19T17:05:06.317Z,13.30
2023-03-19T17:10:12.374Z,13.10
2023-03-19T17:15:23.222Z,12.80
2023-03-19T17:20:30.184Z,12.50
2023-03-19T17:25:31.984Z,12.40
2023-03-19T17:30:34.156Z,12.20
2023-03-19T17:35:36.508Z,12.10
2023-03-19T17:40:38.106Z,12.10
2023-03-19T17:45:46.709Z,12.10
2023-03-19T17:50:48.642Z,12.00
2023-03-19T17:55:50.214Z,11.90
2023-03-19T18:00:52.315Z,11.90
2023-03-19T18:05:53.977Z,11.90
2023-03-19T18:10:55.635Z,11.90
2023-03-19T18:15:57.237Z,11.80
2023-03-19T18:21:00.527Z,11.80
2023-03-19T18:26:02.319Z,11.80
2023-03-19T18:31:04.212Z,11.70
2023-03-19T18:36:06.243Z,11.70
2023-03-19T18:41:09.399Z,11.70
2023-03-19T18:46:16.804Z,11.70
2023-03-19T18:51:18.398Z,11.70
2023-03-19T18:56:25.609Z,11.60
2023-03-19T19:01:27.768Z,11.50
2023-03-19T19:06:46.939Z,11.50
2023-03-19T19:11:49.718Z,11.50
2023-03-19T19:16:52.808Z,11.50
2023-03-19T19:21:54.428Z,11.60
2023-03-19T19:26:58.335Z,11.50
2023-03-19T19:32:00.617Z,11.40
2023-03-19T19:37:02.820Z,11.40
2023-03-19T19:42:04.419Z,11.40
2023-03-19T19:47:15.671Z,11.40
2023-03-19T19:52:18.400Z,11.30
2023-03-19T19:57:30.000Z,11.30
2023-03-19T20:02:31.687Z,11.30
2023-03-19T20:07:33.312Z,11.40
2023-03-19T20:12:34.970Z,11.30
2023-03-19T20:17:36.717Z,11.30
2023-03-19T20:22:38.301Z,11.30
2023-03-19T20:27:40.077Z,11.30
2023-03-19T20:32:41.713Z,11.30
2023-03-19T20:37:43.270Z,11.30
2023-03-19T20:42:46.501Z,11.20
2023-03-19T20:47:48.948Z,11.10
2023-03-19T20:52:51.204Z,11.20
2023-03-19T20:57:53.400Z,11.30
2023-03-19T21:02:56.087Z,11.30
2023-03-19T21:07:57.692Z,11.30
2023-03-19T21:12:59.887Z,11.20
2023-03-19T21:18:01.936Z,11.20
2023-03-19T21:23:15.913Z,11.20
2023-03-19T21:28:44.042Z,11.20
2023-03-19T21:33:46.501Z,11.20
2023-03-19T21:38:49.146Z,11.10
2023-03-19T21:43:56.060Z,11.10
2023-03-19T21:48:58.465Z,11.00
2023-03-19T21:54:00.101Z,11.00
2023-03-19T21:59:03.112Z,11.00
2023-03-19T22:04:04.746Z,11.20
2023-03-19T22:09:06.467Z,10.90
2023-03-19T22:14:13.668Z,11.00
2023-03-19T22:19:16.392Z,11.00
2023-03-19T22:24:18.042Z,10.80
2023-03-19T22:29:20.663Z,10.70
2023-03-19T22:34:23.513Z,10.70
2023-03-19T22:39:25.242Z,10.60
2023-03-19T22:44:28.650Z,10.60
2023-03-19T22:49:31.435Z,10.60
2023-03-19T22:54:33.010Z,10.60
2023-03-19T22:59:34.594Z,10.40
2023-03-19T23:04:36.182Z,10.30
2023-03-19T23:09:38.126Z,10.30
2023-03-19T23:14:39.750Z,10.20
2023-03-19T23:19:41.431Z,10.00
2023-03-19T23:24:44.591Z,9.80
2023-03-19T23:29:47.283Z,9.80
2023-03-19T23:35:00.323Z,9.70
2023-03-19T23:40:03.373Z,9.70
2023-03-19T23:45:05.194Z,9.70
2023-03-19T23:50:11.243Z,9.60
2023-03-19T23:55:12.924Z,9.50
